Weather at Orlando Executive Airport

Public forecast

Using degrees Fahrenheit for public forecast. Weather courtesy of forecast.io.

Current aviation weather report (METAR) for Orlando Executive Airport

Retrieved 2022/08/13 17:34 UTC (20 minutes ago):

KORL 131734Z VRB05KT 10SM VCTS CLR 33/22 A3003 RMK AO2 LTG DSNT NE-SE T03280217

Closest aviation forecast (TAF) to Orlando Executive Airport

Closest forecast is Orlando International Airport, 7.1 nm (13.1 km) S. Retrieved 2022/08/13 12:22 UTC (6 hours ago):

TAF KMCO 131120Z 1312/1418 13005KT P6SM SCT100 BKN250 FM131500 20005KT P6SM SCT025 BKN200 FM131900 23007KT P6SM VCTS SCT040CB BKN230 TEMPO 1319/1322 4SM TSRA BKN040CB BKN070 FM140000 VRB04KT P6SM VCSH SCT050 BKN120 FM140200 00000KT P6SM SCT040 BKN200 FM141400 25005KT P6SM SCT030 BKN150